Urgence — HO6245 — position and weather

sailwx.info

Track history (hours):
 
Tides and Currents Weather Stations Pressure Air Temp Water Temp Dewpoint Dewpoint Depression Visibility Wind Speed Wind Dir Waves Ship Positions

Urgence

Last reported at 2018-Jul-25 18:01 UTC. Time now 2018-Aug-16 20:20 UTC.
Position N 45°20' E 036°34'.
Warning: this ship's position is 22 days out of date.

Length 85 m; draft 3.8 m.

Type: Ship. MMSI: 374707000.

Date/timePositionNaut miles runAvg speedWind from/ knotsBaromVisibWave heightAir tempDewpointWater temp
2018-Jul-25 18:01N 45°20' E 036°34'0 8.2
2018-Jul-25 18:00N 45°20' E 036°34'4 8.4
2018-Jul-25 17:30N 45°21' E 036°39'4 7.8
2018-Jul-25 16:56N 45°26' E 036°41'  
2018-Jul-19 22:17N 45°24' E 036°41'2 8.3
2018-Jul-19 22:00N 45°22' E 036°40'  
2018-Jul-17 17:41N 46°22' E 030°49'1 6.2
2018-Jul-17 17:28N 46°23' E 030°50'1 3.0
2018-Jul-17 17:00N 46°24' E 030°51'4 8.1
2018-Jul-17 16:30N 46°28' E 030°49'3 6.2
2018-Jul-17 16:00N 46°30' E 030°45'1 0.9
2018-Jul-17 15:23N 46°29' E 030°45'0 0.0
2018-Jul-17 14:59N 46°29' E 030°45'0 0.0
2018-Jul-17 14:29N 46°29' E 030°45'0 0.0
2018-Jul-17 13:57N 46°29' E 030°45'0 0.0
2018-Jul-17 13:26N 46°29' E 030°45'0 0.0
2018-Jul-17 12:57N 46°29' E 030°45'0 0.0
2018-Jul-17 12:20N 46°29' E 030°45'0 0.0
2018-Jul-17 11:58N 46°29' E 030°45'0 0.0
2018-Jul-17 11:30N 46°29' E 030°45'0 0.0
2018-Jul-17 10:54N 46°29' E 030°45'0 0.0
2018-Jul-17 10:30N 46°29' E 030°45'0 0.0
2018-Jul-17 09:57N 46°29' E 030°45'0 0.0
2018-Jul-17 09:25N 46°29' E 030°45'0 0.0
2018-Jul-17 08:57N 46°29' E 030°45'0 0.0
2018-Jul-17 08:27N 46°29' E 030°45'0 0.0
2018-Jul-17 07:45N 46°29' E 030°45'0 0.0
2018-Jul-17 07:31N 46°29' E 030°45'0 0.0
2018-Jul-17 06:59N 46°29' E 030°45'0 0.0
2018-Jul-17 06:30N 46°29' E 030°45'0 0.0
2018-Jul-17 05:59N 46°29' E 030°45'0 0.0
2018-Jul-17 05:26N 46°29' E 030°45'0 0.0
2018-Jul-17 05:00N 46°29' E 030°45'0 0.0
2018-Jul-17 04:30N 46°29' E 030°45'0 0.0
2018-Jul-17 03:59N 46°29' E 030°45'0 0.0
2018-Jul-17 03:29N 46°29' E 030°45'0 0.0
2018-Jul-17 02:43N 46°29' E 030°45'0 0.0
2018-Jul-17 02:23N 46°29' E 030°45'0 0.0
2018-Jul-17 01:56N 46°29' E 030°45'0 0.0
2018-Jul-17 01:30N 46°29' E 030°45'0 0.0
2018-Jul-17 00:58N 46°29' E 030°45'0 0.0
2018-Jul-17 00:31N 46°29' E 030°45'0 0.0
2018-Jul-16 23:29N 46°29' E 030°45'0 0.0
2018-Jul-16 22:59N 46°29' E 030°45'0 0.0
2018-Jul-16 22:27N 46°29' E 030°45'0 0.0
2018-Jul-16 21:56N 46°29' E 030°45'0 0.0
2018-Jul-16 21:29N 46°29' E 030°45'0 0.0
2018-Jul-16 20:56N 46°29' E 030°45'0 0.0
2018-Jul-16 20:30N 46°29' E 030°45'0 0.0
2018-Jul-16 19:59N 46°29' E 030°45'0 0.0
2018-Jul-16 19:30N 46°29' E 030°45'0 0.0
2018-Jul-16 18:55N 46°29' E 030°45'0 0.0
2018-Jul-16 18:20N 46°29' E 030°45'0 0.0
2018-Jul-16 17:56N 46°29' E 030°45'0 0.0
2018-Jul-16 17:26N 46°29' E 030°45'0 0.0
2018-Jul-16 16:58N 46°29' E 030°45'0 0.0
2018-Jul-16 16:14N 46°29' E 030°45'0 0.0
2018-Jul-16 15:55N 46°29' E 030°45'0 0.0
2018-Jul-16 15:28N 46°29' E 030°45'0 0.0
2018-Jul-16 15:00N 46°29' E 030°45'2 3.1
2018-Jul-16 14:28N 46°30' E 030°47'2 4.9
2018-Jul-16 14:00N 46°30' E 030°50'0 0.6
2018-Jul-16 13:30N 46°30' E 030°50'0 0.8
2018-Jul-16 13:00N 46°29' E 030°50'0 0.4
2018-Jul-16 12:29N 46°29' E 030°51'0 0.5
2018-Jul-16 12:00N 46°29' E 030°50'1 1.2
2018-Jul-16 11:30N 46°29' E 030°51'0 0.7
2018-Jul-16 11:00N 46°29' E 030°51'1 2.5
2018-Jul-16 10:31N 46°28' E 030°51'2 4.3
2018-Jul-16 09:59N 46°25' E 030°52'2 4.6
2018-Jul-16 09:29N 46°23' E 030°53'  
Track history (hours):
 
Tides and Currents Weather Stations Pressure Air Temp Water Temp Dewpoint Dewpoint Depression Visibility Wind Speed Wind Dir Waves Ship Positions

Urgence

Last reported at 2018-Jul-25 18:01 UTC. Time now 2018-Aug-16 20:20 UTC.
Position N 45°20' E 036°34'.
Warning: this ship's position is 22 days out of date.

Length 85 m; draft 3.8 m.

Type: Ship. MMSI: 374707000.

Date/timePositionNaut miles runAvg speedWind from/ knotsBaromVisibWave heightAir tempDewpointWater temp
2018-Jul-25 18:01N 45°20' E 036°34'0 8.2
2018-Jul-25 18:00N 45°20' E 036°34'4 8.4
2018-Jul-25 17:30N 45°21' E 036°39'4 7.8
2018-Jul-25 16:56N 45°26' E 036°41'  
2018-Jul-19 22:17N 45°24' E 036°41'2 8.3
2018-Jul-19 22:00N 45°22' E 036°40'  
2018-Jul-17 17:41N 46°22' E 030°49'1 6.2
2018-Jul-17 17:28N 46°23' E 030°50'1 3.0
2018-Jul-17 17:00N 46°24' E 030°51'4 8.1
2018-Jul-17 16:30N 46°28' E 030°49'3 6.2
2018-Jul-17 16:00N 46°30' E 030°45'1 0.9
2018-Jul-17 15:23N 46°29' E 030°45'0 0.0
2018-Jul-17 14:59N 46°29' E 030°45'0 0.0
2018-Jul-17 14:29N 46°29' E 030°45'0 0.0
2018-Jul-17 13:57N 46°29' E 030°45'0 0.0
2018-Jul-17 13:26N 46°29' E 030°45'0 0.0
2018-Jul-17 12:57N 46°29' E 030°45'0 0.0
2018-Jul-17 12:20N 46°29' E 030°45'0 0.0
2018-Jul-17 11:58N 46°29' E 030°45'0 0.0
2018-Jul-17 11:30N 46°29' E 030°45'0 0.0
2018-Jul-17 10:54N 46°29' E 030°45'0 0.0
2018-Jul-17 10:30N 46°29' E 030°45'0 0.0
2018-Jul-17 09:57N 46°29' E 030°45'0 0.0
2018-Jul-17 09:25N 46°29' E 030°45'0 0.0
2018-Jul-17 08:57N 46°29' E 030°45'0 0.0
2018-Jul-17 08:27N 46°29' E 030°45'0 0.0
2018-Jul-17 07:45N 46°29' E 030°45'0 0.0
2018-Jul-17 07:31N 46°29' E 030°45'0 0.0
2018-Jul-17 06:59N 46°29' E 030°45'0 0.0
2018-Jul-17 06:30N 46°29' E 030°45'0 0.0
2018-Jul-17 05:59N 46°29' E 030°45'0 0.0
2018-Jul-17 05:26N 46°29' E 030°45'0 0.0
2018-Jul-17 05:00N 46°29' E 030°45'0 0.0
2018-Jul-17 04:30N 46°29' E 030°45'0 0.0
2018-Jul-17 03:59N 46°29' E 030°45'0 0.0
2018-Jul-17 03:29N 46°29' E 030°45'0 0.0
2018-Jul-17 02:43N 46°29' E 030°45'0 0.0
2018-Jul-17 02:23N 46°29' E 030°45'0 0.0
2018-Jul-17 01:56N 46°29' E 030°45'0 0.0
2018-Jul-17 01:30N 46°29' E 030°45'0 0.0
2018-Jul-17 00:58N 46°29' E 030°45'0 0.0
2018-Jul-17 00:31N 46°29' E 030°45'0 0.0
2018-Jul-16 23:29N 46°29' E 030°45'0 0.0
2018-Jul-16 22:59N 46°29' E 030°45'0 0.0
2018-Jul-16 22:27N 46°29' E 030°45'0 0.0
2018-Jul-16 21:56N 46°29' E 030°45'0 0.0
2018-Jul-16 21:29N 46°29' E 030°45'0 0.0
2018-Jul-16 20:56N 46°29' E 030°45'0 0.0
2018-Jul-16 20:30N 46°29' E 030°45'0 0.0
2018-Jul-16 19:59N 46°29' E 030°45'0 0.0
2018-Jul-16 19:30N 46°29' E 030°45'0 0.0
2018-Jul-16 18:55N 46°29' E 030°45'0 0.0
2018-Jul-16 18:20N 46°29' E 030°45'0 0.0
2018-Jul-16 17:56N 46°29' E 030°45'0 0.0
2018-Jul-16 17:26N 46°29' E 030°45'0 0.0
2018-Jul-16 16:58N 46°29' E 030°45'0 0.0
2018-Jul-16 16:14N 46°29' E 030°45'0 0.0
2018-Jul-16 15:55N 46°29' E 030°45'0 0.0
2018-Jul-16 15:28N 46°29' E 030°45'0 0.0
2018-Jul-16 15:00N 46°29' E 030°45'2 3.1
2018-Jul-16 14:28N 46°30' E 030°47'2 4.9
2018-Jul-16 14:00N 46°30' E 030°50'0 0.6
2018-Jul-16 13:30N 46°30' E 030°50'0 0.8
2018-Jul-16 13:00N 46°29' E 030°50'0 0.4
2018-Jul-16 12:29N 46°29' E 030°51'0 0.5
2018-Jul-16 12:00N 46°29' E 030°50'1 1.2
2018-Jul-16 11:30N 46°29' E 030°51'0 0.7
2018-Jul-16 11:00N 46°29' E 030°51'1 2.5
2018-Jul-16 10:31N 46°28' E 030°51'2 4.3
2018-Jul-16 09:59N 46°25' E 030°52'2 4.6
2018-Jul-16 09:29N 46°23' E 030°53'  

Dump ship's entire track history